sensor_id;sensor_type;location;lat;lon;timestamp;P1;durP1;ratioP1;P2;durP2;ratioP2
2099;SDS011;1055;48.854;9.302;2023-06-19T00:02:14;12.33;;;10.70;;
2099;SDS011;1055;48.854;9.302;2023-06-19T00:04:40;11.90;;;10.13;;
2099;SDS011;1055;48.854;9.302;2023-06-19T00:07:05;11.80;;;10.50;;
2099;SDS011;1055;48.854;9.302;2023-06-19T00:09:32;13.03;;;11.10;;
2099;SDS011;1055;48.854;9.302;2023-06-19T00:11:57;12.00;;;10.20;;
2099;SDS011;1055;48.854;9.302;2023-06-19T00:14:24;12.77;;;10.87;;
2099;SDS011;1055;48.854;9.302;2023-06-19T00:16:50;11.47;;;10.27;;
2099;SDS011;1055;48.854;9.302;2023-06-19T00:19:16;13.40;;;10.33;;
2099;SDS011;1055;48.854;9.302;2023-06-19T00:21:42;12.60;;;10.90;;
2099;SDS011;1055;48.854;9.302;2023-06-19T00:24:08;12.27;;;11.00;;
2099;SDS011;1055;48.854;9.302;2023-06-19T00:26:35;12.47;;;11.10;;
2099;SDS011;1055;48.854;9.302;2023-06-19T00:29:00;12.70;;;10.47;;
2099;SDS011;1055;48.854;9.302;2023-06-19T00:31:26;12.10;;;10.80;;
2099;SDS011;1055;48.854;9.302;2023-06-19T00:33:52;11.80;;;10.60;;
2099;SDS011;1055;48.854;9.302;2023-06-19T00:36:18;14.00;;;11.10;;
2099;SDS011;1055;48.854;9.302;2023-06-19T00:38:49;13.53;;;11.10;;
2099;SDS011;1055;48.854;9.302;2023-06-19T00:41:15;12.17;;;10.97;;
2099;SDS011;1055;48.854;9.302;2023-06-19T00:43:42;12.90;;;10.70;;
2099;SDS011;1055;48.854;9.302;2023-06-19T00:46:08;12.47;;;11.17;;
2099;SDS011;1055;48.854;9.302;2023-06-19T00:48:35;11.80;;;10.70;;
2099;SDS011;1055;48.854;9.302;2023-06-19T00:51:01;11.77;;;10.57;;
2099;SDS011;1055;48.854;9.302;2023-06-19T00:53:27;12.47;;;11.20;;
2099;SDS011;1055;48.854;9.302;2023-06-19T00:55:53;12.47;;;11.17;;
2099;SDS011;1055;48.854;9.302;2023-06-19T00:58:21;13.20;;;11.90;;
2099;SDS011;1055;48.854;9.302;2023-06-19T01:00:48;13.60;;;11.23;;
2099;SDS011;1055;48.854;9.302;2023-06-19T01:03:14;13.13;;;11.80;;
2099;SDS011;1055;48.854;9.302;2023-06-19T01:05:40;12.57;;;11.27;;
2099;SDS011;1055;48.854;9.302;2023-06-19T01:08:14;13.70;;;11.33;;
2099;SDS011;1055;48.854;9.302;2023-06-19T01:10:51;11.30;;;10.17;;
2099;SDS011;1055;48.854;9.302;2023-06-19T01:13:22;11.37;;;10.17;;
2099;SDS011;1055;48.854;9.302;2023-06-19T01:16:08;12.70;;;11.07;;
2099;SDS011;1055;48.854;9.302;2023-06-19T01:18:34;11.03;;;9.93;;
2099;SDS011;1055;48.854;9.302;2023-06-19T01:21:11;11.57;;;10.37;;
2099;SDS011;1055;48.854;9.302;2023-06-19T01:23:41;11.70;;;10.47;;
2099;SDS011;1055;48.854;9.302;2023-06-19T01:26:07;11.43;;;10.23;;
2099;SDS011;1055;48.854;9.302;2023-06-19T01:28:33;11.83;;;10.03;;
2099;SDS011;1055;48.854;9.302;2023-06-19T01:31:11;13.73;;;10.43;;
2099;SDS011;1055;48.854;9.302;2023-06-19T01:33:40;11.83;;;10.07;;
2099;SDS011;1055;48.854;9.302;2023-06-19T01:36:07;11.03;;;9.87;;
2099;SDS011;1055;48.854;9.302;2023-06-19T01:38:34;11.33;;;9.23;;
2099;SDS011;1055;48.854;9.302;2023-06-19T01:41:01;12.67;;;10.37;;
2099;SDS011;1055;48.854;9.302;2023-06-19T01:43:29;12.20;;;8.70;;
2099;SDS011;1055;48.854;9.302;2023-06-19T01:45:56;13.10;;;8.63;;
2099;SDS011;1055;48.854;9.302;2023-06-19T01:48:22;10.77;;;8.20;;
2099;SDS011;1055;48.854;9.302;2023-06-19T01:50:48;10.87;;;9.33;;
2099;SDS011;1055;48.854;9.302;2023-06-19T01:53:15;11.40;;;9.13;;
2099;SDS011;1055;48.854;9.302;2023-06-19T01:55:40;9.83;;;8.20;;
2099;SDS011;1055;48.854;9.302;2023-06-19T01:58:06;11.40;;;9.30;;
2099;SDS011;1055;48.854;9.302;2023-06-19T02:00:32;12.30;;;8.17;;
2099;SDS011;1055;48.854;9.302;2023-06-19T02:03:02;9.80;;;8.20;;
2099;SDS011;1055;48.854;9.302;2023-06-19T02:05:27;11.67;;;8.37;;
2099;SDS011;1055;48.854;9.302;2023-06-19T02:07:53;9.87;;;8.40;;
2099;SDS011;1055;48.854;9.302;2023-06-19T02:10:19;11.27;;;8.33;;
2099;SDS011;1055;48.854;9.302;2023-06-19T02:12:44;9.03;;;7.00;;
2099;SDS011;1055;48.854;9.302;2023-06-19T02:15:10;9.17;;;7.10;;
2099;SDS011;1055;48.854;9.302;2023-06-19T02:17:35;14.00;;;8.10;;
2099;SDS011;1055;48.854;9.302;2023-06-19T02:20:01;8.90;;;6.77;;
2099;SDS011;1055;48.854;9.302;2023-06-19T02:22:27;10.67;;;7.60;;
2099;SDS011;1055;48.854;9.302;2023-06-19T02:24:53;9.10;;;7.00;;
2099;SDS011;1055;48.854;9.302;2023-06-19T02:27:18;9.20;;;6.10;;
2099;SDS011;1055;48.854;9.302;2023-06-19T02:29:44;9.67;;;6.93;;
2099;SDS011;1055;48.854;9.302;2023-06-19T02:32:09;8.87;;;6.10;;
2099;SDS011;1055;48.854;9.302;2023-06-19T02:34:36;8.70;;;6.23;;
2099;SDS011;1055;48.854;9.302;2023-06-19T02:37:01;9.80;;;6.90;;
2099;SDS011;1055;48.854;9.302;2023-06-19T02:39:27;8.13;;;6.13;;
2099;SDS011;1055;48.854;9.302;2023-06-19T02:41:54;10.90;;;7.00;;
2099;SDS011;1055;48.854;9.302;2023-06-19T02:44:19;9.80;;;6.40;;
2099;SDS011;1055;48.854;9.302;2023-06-19T02:46:45;9.70;;;7.37;;
2099;SDS011;1055;48.854;9.302;2023-06-19T02:49:11;8.20;;;6.60;;
2099;SDS011;1055;48.854;9.302;2023-06-19T02:51:36;10.03;;;6.60;;
2099;SDS011;1055;48.854;9.302;2023-06-19T02:54:02;9.23;;;6.80;;
2099;SDS011;1055;48.854;9.302;2023-06-19T02:56:27;8.93;;;6.80;;
2099;SDS011;1055;48.854;9.302;2023-06-19T02:58:53;9.57;;;7.30;;
2099;SDS011;1055;48.854;9.302;2023-06-19T03:01:19;9.47;;;6.43;;
2099;SDS011;1055;48.854;9.302;2023-06-19T03:03:44;11.50;;;6.80;;
2099;SDS011;1055;48.854;9.302;2023-06-19T03:06:11;9.50;;;6.90;;
2099;SDS011;1055;48.854;9.302;2023-06-19T03:08:38;8.50;;;7.03;;
2099;SDS011;1055;48.854;9.302;2023-06-19T03:11:04;9.53;;;6.20;;
2099;SDS011;1055;48.854;9.302;2023-06-19T03:16:18;10.70;;;7.00;;
2099;SDS011;1055;48.854;9.302;2023-06-19T03:18:44;11.17;;;7.67;;
2099;SDS011;1055;48.854;9.302;2023-06-19T03:21:13;9.60;;;7.60;;
2099;SDS011;1055;48.854;9.302;2023-06-19T03:23:39;9.50;;;6.90;;
2099;SDS011;1055;48.854;9.302;2023-06-19T03:26:08;9.20;;;6.90;;
2099;SDS011;1055;48.854;9.302;2023-06-19T03:28:35;10.47;;;7.50;;
2099;SDS011;1055;48.854;9.302;2023-06-19T03:31:01;11.33;;;7.83;;
2099;SDS011;1055;48.854;9.302;2023-06-19T03:33:27;9.17;;;6.90;;
2099;SDS011;1055;48.854;9.302;2023-06-19T03:35:52;9.43;;;7.33;;
2099;SDS011;1055;48.854;9.302;2023-06-19T03:38:18;9.07;;;7.10;;
2099;SDS011;1055;48.854;9.302;2023-06-19T03:40:43;10.03;;;6.90;;
2099;SDS011;1055;48.854;9.302;2023-06-19T03:43:09;9.90;;;7.20;;
2099;SDS011;1055;48.854;9.302;2023-06-19T03:45:36;10.33;;;7.97;;
2099;SDS011;1055;48.854;9.302;2023-06-19T03:48:01;11.03;;;8.30;;
2099;SDS011;1055;48.854;9.302;2023-06-19T03:50:27;10.13;;;6.57;;
2099;SDS011;1055;48.854;9.302;2023-06-19T03:52:53;9.97;;;7.07;;
2099;SDS011;1055;48.854;9.302;2023-06-19T03:55:18;9.67;;;7.10;;
2099;SDS011;1055;48.854;9.302;2023-06-19T03:57:44;8.80;;;6.33;;
2099;SDS011;1055;48.854;9.302;2023-06-19T04:00:10;7.87;;;6.10;;
2099;SDS011;1055;48.854;9.302;2023-06-19T04:02:38;11.63;;;7.00;;
2099;SDS011;1055;48.854;9.302;2023-06-19T04:05:04;8.30;;;6.07;;
2099;SDS011;1055;48.854;9.302;2023-06-19T04:07:30;10.63;;;6.40;;
2099;SDS011;1055;48.854;9.302;2023-06-19T04:09:57;7.50;;;5.40;;
2099;SDS011;1055;48.854;9.302;2023-06-19T04:12:23;8.27;;;5.57;;
2099;SDS011;1055;48.854;9.302;2023-06-19T04:14:49;7.20;;;4.83;;
2099;SDS011;1055;48.854;9.302;2023-06-19T04:17:15;6.80;;;4.03;;
2099;SDS011;1055;48.854;9.302;2023-06-19T04:19:40;7.50;;;4.60;;
2099;SDS011;1055;48.854;9.302;2023-06-19T04:22:06;8.70;;;4.40;;
2099;SDS011;1055;48.854;9.302;2023-06-19T04:24:32;8.07;;;5.27;;
2099;SDS011;1055;48.854;9.302;2023-06-19T04:26:58;7.20;;;4.70;;
2099;SDS011;1055;48.854;9.302;2023-06-19T04:29:24;9.40;;;4.60;;
2099;SDS011;1055;48.854;9.302;2023-06-19T04:31:49;8.07;;;4.33;;
2099;SDS011;1055;48.854;9.302;2023-06-19T04:34:18;7.03;;;3.80;;
2099;SDS011;1055;48.854;9.302;2023-06-19T04:36:50;6.37;;;3.80;;
2099;SDS011;1055;48.854;9.302;2023-06-19T04:39:15;7.50;;;3.27;;
2099;SDS011;1055;48.854;9.302;2023-06-19T04:41:44;7.03;;;4.00;;
2099;SDS011;1055;48.854;9.302;2023-06-19T04:44:10;7.00;;;3.80;;
2099;SDS011;1055;48.854;9.302;2023-06-19T04:46:39;6.87;;;4.00;;
2099;SDS011;1055;48.854;9.302;2023-06-19T04:49:05;6.57;;;3.83;;
2099;SDS011;1055;48.854;9.302;2023-06-19T04:51:31;6.57;;;4.00;;
2099;SDS011;1055;48.854;9.302;2023-06-19T04:54:01;7.70;;;3.80;;
2099;SDS011;1055;48.854;9.302;2023-06-19T04:56:27;6.17;;;3.77;;
2099;SDS011;1055;48.854;9.302;2023-06-19T04:58:53;7.57;;;4.17;;
2099;SDS011;1055;48.854;9.302;2023-06-19T05:01:21;6.37;;;3.80;;
2099;SDS011;1055;48.854;9.302;2023-06-19T05:03:52;6.73;;;4.10;;
2099;SDS011;1055;48.854;9.302;2023-06-19T05:06:19;7.00;;;3.90;;
2099;SDS011;1055;48.854;9.302;2023-06-19T05:08:45;7.40;;;4.27;;
2099;SDS011;1055;48.854;9.302;2023-06-19T05:11:11;6.50;;;4.13;;
2099;SDS011;1055;48.854;9.302;2023-06-19T05:13:36;9.10;;;4.90;;
2099;SDS011;1055;48.854;9.302;2023-06-19T05:16:02;7.70;;;4.57;;
2099;SDS011;1055;48.854;9.302;2023-06-19T05:18:28;7.57;;;4.70;;
2099;SDS011;1055;48.854;9.302;2023-06-19T05:20:53;7.77;;;4.80;;
2099;SDS011;1055;48.854;9.302;2023-06-19T05:23:19;7.60;;;4.37;;
2099;SDS011;1055;48.854;9.302;2023-06-19T05:25:45;8.40;;;4.90;;
2099;SDS011;1055;48.854;9.302;2023-06-19T05:28:10;7.13;;;4.47;;
2099;SDS011;1055;48.854;9.302;2023-06-19T05:30:36;7.70;;;4.63;;
2099;SDS011;1055;48.854;9.302;2023-06-19T05:33:01;8.83;;;4.80;;
2099;SDS011;1055;48.854;9.302;2023-06-19T05:35:27;8.60;;;4.77;;
2099;SDS011;1055;48.854;9.302;2023-06-19T05:37:53;7.60;;;5.00;;
2099;SDS011;1055;48.854;9.302;2023-06-19T05:40:18;8.23;;;4.97;;
2099;SDS011;1055;48.854;9.302;2023-06-19T05:42:44;7.97;;;4.90;;
2099;SDS011;1055;48.854;9.302;2023-06-19T05:45:10;7.27;;;4.83;;
2099;SDS011;1055;48.854;9.302;2023-06-19T05:47:36;7.93;;;5.03;;
2099;SDS011;1055;48.854;9.302;2023-06-19T05:50:02;7.67;;;5.80;;
2099;SDS011;1055;48.854;9.302;2023-06-19T05:52:28;9.10;;;4.70;;
2099;SDS011;1055;48.854;9.302;2023-06-19T05:54:53;8.13;;;4.70;;
2099;SDS011;1055;48.854;9.302;2023-06-19T05:57:19;8.10;;;4.90;;
2099;SDS011;1055;48.854;9.302;2023-06-19T05:59:48;7.60;;;5.00;;
2099;SDS011;1055;48.854;9.302;2023-06-19T06:02:13;10.77;;;5.73;;
2099;SDS011;1055;48.854;9.302;2023-06-19T06:04:40;14.77;;;5.53;;
2099;SDS011;1055;48.854;9.302;2023-06-19T06:07:05;7.83;;;4.60;;
2099;SDS011;1055;48.854;9.302;2023-06-19T06:09:31;7.90;;;5.20;;
2099;SDS011;1055;48.854;9.302;2023-06-19T06:11:58;8.60;;;5.50;;
2099;SDS011;1055;48.854;9.302;2023-06-19T06:14:24;7.53;;;5.40;;
2099;SDS011;1055;48.854;9.302;2023-06-19T06:16:50;8.17;;;5.50;;
2099;SDS011;1055;48.854;9.302;2023-06-19T06:19:16;9.43;;;5.20;;
2099;SDS011;1055;48.854;9.302;2023-06-19T06:21:42;7.47;;;4.80;;
2099;SDS011;1055;48.854;9.302;2023-06-19T06:24:08;8.10;;;5.17;;
2099;SDS011;1055;48.854;9.302;2023-06-19T06:26:34;8.83;;;5.70;;
2099;SDS011;1055;48.854;9.302;2023-06-19T06:29:00;8.47;;;5.00;;
2099;SDS011;1055;48.854;9.302;2023-06-19T06:31:26;7.77;;;4.50;;
2099;SDS011;1055;48.854;9.302;2023-06-19T06:33:52;7.40;;;4.10;;
2099;SDS011;1055;48.854;9.302;2023-06-19T06:36:18;9.77;;;4.40;;
2099;SDS011;1055;48.854;9.302;2023-06-19T06:38:43;7.17;;;4.77;;
2099;SDS011;1055;48.854;9.302;2023-06-19T06:41:09;9.60;;;5.27;;
2099;SDS011;1055;48.854;9.302;2023-06-19T06:43:35;8.67;;;5.67;;
2099;SDS011;1055;48.854;9.302;2023-06-19T06:46:01;10.27;;;5.87;;
2099;SDS011;1055;48.854;9.302;2023-06-19T06:48:26;9.87;;;5.50;;
2099;SDS011;1055;48.854;9.302;2023-06-19T06:50:52;10.00;;;5.27;;
2099;SDS011;1055;48.854;9.302;2023-06-19T06:53:24;8.23;;;4.70;;
2099;SDS011;1055;48.854;9.302;2023-06-19T06:55:50;8.53;;;5.13;;
2099;SDS011;1055;48.854;9.302;2023-06-19T06:58:16;6.80;;;4.60;;
2099;SDS011;1055;48.854;9.302;2023-06-19T07:00:44;9.37;;;4.80;;
2099;SDS011;1055;48.854;9.302;2023-06-19T07:03:10;7.60;;;4.83;;
2099;SDS011;1055;48.854;9.302;2023-06-19T07:05:35;7.20;;;5.07;;
2099;SDS011;1055;48.854;9.302;2023-06-19T07:08:01;7.37;;;4.70;;
2099;SDS011;1055;48.854;9.302;2023-06-19T07:10:27;7.37;;;4.90;;
2099;SDS011;1055;48.854;9.302;2023-06-19T07:12:52;8.60;;;4.80;;
2099;SDS011;1055;48.854;9.302;2023-06-19T07:15:18;6.60;;;4.10;;
2099;SDS011;1055;48.854;9.302;2023-06-19T07:17:44;6.73;;;3.73;;
2099;SDS011;1055;48.854;9.302;2023-06-19T07:20:10;6.43;;;3.53;;
2099;SDS011;1055;48.854;9.302;2023-06-19T07:22:36;5.47;;;3.00;;
2099;SDS011;1055;48.854;9.302;2023-06-19T07:25:03;6.20;;;3.33;;
2099;SDS011;1055;48.854;9.302;2023-06-19T07:27:29;5.70;;;3.30;;
2099;SDS011;1055;48.854;9.302;2023-06-19T07:29:55;6.60;;;3.17;;
2099;SDS011;1055;48.854;9.302;2023-06-19T07:32:21;5.37;;;2.90;;
2099;SDS011;1055;48.854;9.302;2023-06-19T07:34:47;6.33;;;3.10;;
2099;SDS011;1055;48.854;9.302;2023-06-19T07:37:12;6.43;;;3.33;;
2099;SDS011;1055;48.854;9.302;2023-06-19T07:39:45;6.27;;;3.67;;
2099;SDS011;1055;48.854;9.302;2023-06-19T07:42:12;6.43;;;3.60;;
2099;SDS011;1055;48.854;9.302;2023-06-19T07:44:39;6.80;;;3.77;;
2099;SDS011;1055;48.854;9.302;2023-06-19T07:47:06;6.20;;;3.77;;
2099;SDS011;1055;48.854;9.302;2023-06-19T07:49:32;6.70;;;3.57;;
2099;SDS011;1055;48.854;9.302;2023-06-19T07:51:57;5.57;;;3.20;;
2099;SDS011;1055;48.854;9.302;2023-06-19T07:54:23;5.77;;;3.33;;
2099;SDS011;1055;48.854;9.302;2023-06-19T07:56:49;7.40;;;3.50;;
2099;SDS011;1055;48.854;9.302;2023-06-19T07:59:14;6.30;;;3.50;;
2099;SDS011;1055;48.854;9.302;2023-06-19T08:01:41;5.90;;;3.17;;
2099;SDS011;1055;48.854;9.302;2023-06-19T08:04:07;5.70;;;3.13;;
2099;SDS011;1055;48.854;9.302;2023-06-19T08:06:32;6.10;;;3.00;;
2099;SDS011;1055;48.854;9.302;2023-06-19T08:08:58;6.70;;;3.40;;
2099;SDS011;1055;48.854;9.302;2023-06-19T08:11:24;6.30;;;3.40;;
2099;SDS011;1055;48.854;9.302;2023-06-19T08:13:49;6.67;;;3.20;;
2099;SDS011;1055;48.854;9.302;2023-06-19T08:16:15;6.40;;;3.90;;
2099;SDS011;1055;48.854;9.302;2023-06-19T08:18:40;6.43;;;3.37;;
2099;SDS011;1055;48.854;9.302;2023-06-19T08:21:07;7.60;;;3.50;;
2099;SDS011;1055;48.854;9.302;2023-06-19T08:23:33;6.40;;;3.30;;
2099;SDS011;1055;48.854;9.302;2023-06-19T08:25:58;6.73;;;3.47;;
2099;SDS011;1055;48.854;9.302;2023-06-19T08:28:24;9.67;;;3.70;;
2099;SDS011;1055;48.854;9.302;2023-06-19T08:30:49;5.97;;;2.90;;
2099;SDS011;1055;48.854;9.302;2023-06-19T08:33:15;6.63;;;2.70;;
2099;SDS011;1055;48.854;9.302;2023-06-19T08:35:41;6.23;;;3.07;;
2099;SDS011;1055;48.854;9.302;2023-06-19T08:38:06;7.33;;;2.60;;
2099;SDS011;1055;48.854;9.302;2023-06-19T08:40:32;6.53;;;3.40;;
2099;SDS011;1055;48.854;9.302;2023-06-19T08:42:58;6.37;;;3.13;;
2099;SDS011;1055;48.854;9.302;2023-06-19T08:45:25;7.00;;;3.30;;
2099;SDS011;1055;48.854;9.302;2023-06-19T08:47:59;8.30;;;3.50;;
2099;SDS011;1055;48.854;9.302;2023-06-19T08:50:32;10.20;;;3.50;;
2099;SDS011;1055;48.854;9.302;2023-06-19T08:52:58;5.77;;;3.40;;
2099;SDS011;1055;48.854;9.302;2023-06-19T08:55:24;6.50;;;3.90;;
2099;SDS011;1055;48.854;9.302;2023-06-19T08:57:50;7.80;;;4.00;;
2099;SDS011;1055;48.854;9.302;2023-06-19T09:00:28;6.40;;;3.80;;
2099;SDS011;1055;48.854;9.302;2023-06-19T09:02:59;5.73;;;3.40;;
2099;SDS011;1055;48.854;9.302;2023-06-19T09:05:29;7.10;;;4.00;;
2099;SDS011;1055;48.854;9.302;2023-06-19T09:07:55;7.00;;;4.30;;
2099;SDS011;1055;48.854;9.302;2023-06-19T09:10:23;7.03;;;3.90;;
2099;SDS011;1055;48.854;9.302;2023-06-19T09:15:30;7.60;;;3.83;;
2099;SDS011;1055;48.854;9.302;2023-06-19T09:18:08;7.70;;;4.03;;
2099;SDS011;1055;48.854;9.302;2023-06-19T09:20:37;6.03;;;3.60;;
2099;SDS011;1055;48.854;9.302;2023-06-19T09:23:09;6.50;;;3.73;;
2099;SDS011;1055;48.854;9.302;2023-06-19T09:25:54;5.70;;;3.80;;
2099;SDS011;1055;48.854;9.302;2023-06-19T09:28:27;6.10;;;3.60;;
2099;SDS011;1055;48.854;9.302;2023-06-19T09:33:19;6.77;;;4.37;;
2099;SDS011;1055;48.854;9.302;2023-06-19T09:35:45;7.07;;;4.20;;
2099;SDS011;1055;48.854;9.302;2023-06-19T09:38:11;7.27;;;4.80;;
2099;SDS011;1055;48.854;9.302;2023-06-19T09:40:38;6.33;;;4.00;;
2099;SDS011;1055;48.854;9.302;2023-06-19T09:43:04;7.40;;;3.97;;
2099;SDS011;1055;48.854;9.302;2023-06-19T09:45:32;8.60;;;4.30;;
2099;SDS011;1055;48.854;9.302;2023-06-19T09:48:00;6.70;;;4.40;;
2099;SDS011;1055;48.854;9.302;2023-06-19T09:50:26;6.70;;;4.10;;
2099;SDS011;1055;48.854;9.302;2023-06-19T09:52:52;6.17;;;3.83;;
2099;SDS011;1055;48.854;9.302;2023-06-19T09:55:19;6.87;;;4.47;;
2099;SDS011;1055;48.854;9.302;2023-06-19T09:57:49;7.77;;;4.67;;
2099;SDS011;1055;48.854;9.302;2023-06-19T10:00:16;6.90;;;4.40;;
2099;SDS011;1055;48.854;9.302;2023-06-19T10:02:53;6.20;;;4.33;;
2099;SDS011;1055;48.854;9.302;2023-06-19T10:05:29;7.67;;;4.50;;
2099;SDS011;1055;48.854;9.302;2023-06-19T10:07:56;7.00;;;4.77;;
2099;SDS011;1055;48.854;9.302;2023-06-19T10:10:26;8.63;;;5.20;;
2099;SDS011;1055;48.854;9.302;2023-06-19T10:12:53;7.20;;;4.67;;
2099;SDS011;1055;48.854;9.302;2023-06-19T10:15:30;6.10;;;4.10;;
2099;SDS011;1055;48.854;9.302;2023-06-19T10:18:02;5.77;;;3.97;;
2099;SDS011;1055;48.854;9.302;2023-06-19T10:23:04;6.60;;;4.50;;
2099;SDS011;1055;48.854;9.302;2023-06-19T10:25:39;6.60;;;4.70;;
2099;SDS011;1055;48.854;9.302;2023-06-19T10:28:16;10.10;;;5.00;;
2099;SDS011;1055;48.854;9.302;2023-06-19T10:30:42;7.90;;;4.60;;
2099;SDS011;1055;48.854;9.302;2023-06-19T10:33:08;7.50;;;4.90;;
2099;SDS011;1055;48.854;9.302;2023-06-19T10:35:37;7.80;;;4.57;;
2099;SDS011;1055;48.854;9.302;2023-06-19T10:38:04;7.47;;;4.83;;
2099;SDS011;1055;48.854;9.302;2023-06-19T10:40:30;8.03;;;5.93;;
2099;SDS011;1055;48.854;9.302;2023-06-19T10:42:56;8.93;;;5.50;;
2099;SDS011;1055;48.854;9.302;2023-06-19T10:45:21;7.47;;;4.97;;
2099;SDS011;1055;48.854;9.302;2023-06-19T10:47:53;8.37;;;5.10;;
2099;SDS011;1055;48.854;9.302;2023-06-19T10:50:19;8.80;;;5.90;;
2099;SDS011;1055;48.854;9.302;2023-06-19T10:52:45;7.80;;;5.33;;
2099;SDS011;1055;48.854;9.302;2023-06-19T10:55:12;7.20;;;5.27;;
2099;SDS011;1055;48.854;9.302;2023-06-19T10:57:39;7.10;;;5.20;;
2099;SDS011;1055;48.854;9.302;2023-06-19T11:00:09;10.50;;;5.23;;
2099;SDS011;1055;48.854;9.302;2023-06-19T11:02:40;7.70;;;4.80;;
2099;SDS011;1055;48.854;9.302;2023-06-19T11:05:08;7.27;;;5.20;;
2099;SDS011;1055;48.854;9.302;2023-06-19T11:07:37;6.53;;;4.40;;
2099;SDS011;1055;48.854;9.302;2023-06-19T11:10:03;6.60;;;5.03;;
2099;SDS011;1055;48.854;9.302;2023-06-19T11:12:31;7.23;;;5.20;;
2099;SDS011;1055;48.854;9.302;2023-06-19T11:14:58;6.87;;;5.40;;
2099;SDS011;1055;48.854;9.302;2023-06-19T11:17:24;7.80;;;5.20;;
2099;SDS011;1055;48.854;9.302;2023-06-19T11:19:50;7.50;;;5.70;;
2099;SDS011;1055;48.854;9.302;2023-06-19T11:22:16;7.37;;;5.67;;
2099;SDS011;1055;48.854;9.302;2023-06-19T11:24:45;7.60;;;5.07;;
2099;SDS011;1055;48.854;9.302;2023-06-19T11:27:21;9.77;;;5.10;;
2099;SDS011;1055;48.854;9.302;2023-06-19T11:29:54;6.57;;;4.80;;
2099;SDS011;1055;48.854;9.302;2023-06-19T11:32:24;7.03;;;5.47;;
2099;SDS011;1055;48.854;9.302;2023-06-19T11:34:56;9.57;;;5.30;;
2099;SDS011;1055;48.854;9.302;2023-06-19T11:37:22;6.70;;;5.30;;
2099;SDS011;1055;48.854;9.302;2023-06-19T11:39:48;7.30;;;5.03;;
2099;SDS011;1055;48.854;9.302;2023-06-19T11:42:16;8.97;;;5.23;;
2099;SDS011;1055;48.854;9.302;2023-06-19T11:47:20;7.10;;;4.77;;
2099;SDS011;1055;48.854;9.302;2023-06-19T11:49:50;7.33;;;5.00;;
2099;SDS011;1055;48.854;9.302;2023-06-19T11:52:16;12.30;;;5.73;;
2099;SDS011;1055;48.854;9.302;2023-06-19T11:54:42;7.43;;;5.10;;
2099;SDS011;1055;48.854;9.302;2023-06-19T11:57:11;7.80;;;4.97;;
2099;SDS011;1055;48.854;9.302;2023-06-19T11:59:38;8.50;;;5.50;;
2099;SDS011;1055;48.854;9.302;2023-06-19T12:02:05;6.53;;;4.93;;
2099;SDS011;1055;48.854;9.302;2023-06-19T12:04:30;8.97;;;4.80;;
2099;SDS011;1055;48.854;9.302;2023-06-19T12:06:57;8.57;;;5.80;;
2099;SDS011;1055;48.854;9.302;2023-06-19T12:09:23;7.13;;;5.40;;
2099;SDS011;1055;48.854;9.302;2023-06-19T12:11:49;7.80;;;4.90;;
2099;SDS011;1055;48.854;9.302;2023-06-19T12:14:15;6.77;;;4.90;;
2099;SDS011;1055;48.854;9.302;2023-06-19T12:16:40;6.87;;;4.90;;
2099;SDS011;1055;48.854;9.302;2023-06-19T12:19:06;7.13;;;4.73;;
2099;SDS011;1055;48.854;9.302;2023-06-19T12:21:31;7.67;;;4.97;;
2099;SDS011;1055;48.854;9.302;2023-06-19T12:23:57;6.47;;;4.80;;
2099;SDS011;1055;48.854;9.302;2023-06-19T12:26:23;6.77;;;5.10;;
2099;SDS011;1055;48.854;9.302;2023-06-19T12:28:51;7.00;;;4.63;;
2099;SDS011;1055;48.854;9.302;2023-06-19T12:31:17;10.43;;;5.60;;
2099;SDS011;1055;48.854;9.302;2023-06-19T12:33:43;6.87;;;5.30;;
2099;SDS011;1055;48.854;9.302;2023-06-19T12:36:13;7.33;;;4.93;;
2099;SDS011;1055;48.854;9.302;2023-06-19T12:38:42;6.63;;;5.03;;
2099;SDS011;1055;48.854;9.302;2023-06-19T12:41:08;6.93;;;4.93;;
2099;SDS011;1055;48.854;9.302;2023-06-19T12:43:33;8.07;;;5.30;;
2099;SDS011;1055;48.854;9.302;2023-06-19T12:45:59;7.30;;;5.20;;
2099;SDS011;1055;48.854;9.302;2023-06-19T12:48:26;7.47;;;5.37;;
2099;SDS011;1055;48.854;9.302;2023-06-19T12:50:52;8.47;;;5.43;;
2099;SDS011;1055;48.854;9.302;2023-06-19T12:53:17;8.23;;;5.57;;
2099;SDS011;1055;48.854;9.302;2023-06-19T12:55:43;6.90;;;5.17;;
2099;SDS011;1055;48.854;9.302;2023-06-19T12:58:09;7.47;;;5.27;;
2099;SDS011;1055;48.854;9.302;2023-06-19T13:00:36;6.73;;;4.60;;
2099;SDS011;1055;48.854;9.302;2023-06-19T13:03:02;9.43;;;5.83;;
2099;SDS011;1055;48.854;9.302;2023-06-19T13:05:27;8.30;;;5.10;;
2099;SDS011;1055;48.854;9.302;2023-06-19T13:07:54;6.33;;;4.77;;
2099;SDS011;1055;48.854;9.302;2023-06-19T13:10:19;7.60;;;5.70;;
2099;SDS011;1055;48.854;9.302;2023-06-19T13:12:45;7.10;;;5.67;;
2099;SDS011;1055;48.854;9.302;2023-06-19T13:15:11;7.57;;;4.90;;
2099;SDS011;1055;48.854;9.302;2023-06-19T13:17:36;7.17;;;5.47;;
2099;SDS011;1055;48.854;9.302;2023-06-19T13:20:02;8.50;;;5.43;;
2099;SDS011;1055;48.854;9.302;2023-06-19T13:22:29;7.90;;;5.23;;
2099;SDS011;1055;48.854;9.302;2023-06-19T13:24:56;7.80;;;4.87;;
2099;SDS011;1055;48.854;9.302;2023-06-19T13:27:21;7.40;;;5.47;;
2099;SDS011;1055;48.854;9.302;2023-06-19T13:29:47;7.43;;;5.40;;
2099;SDS011;1055;48.854;9.302;2023-06-19T13:32:13;6.67;;;4.80;;
2099;SDS011;1055;48.854;9.302;2023-06-19T13:34:38;7.80;;;5.10;;
2099;SDS011;1055;48.854;9.302;2023-06-19T13:37:04;9.60;;;5.43;;
2099;SDS011;1055;48.854;9.302;2023-06-19T13:39:29;6.70;;;4.93;;
2099;SDS011;1055;48.854;9.302;2023-06-19T13:41:55;6.83;;;5.33;;
2099;SDS011;1055;48.854;9.302;2023-06-19T13:44:21;7.20;;;5.00;;
2099;SDS011;1055;48.854;9.302;2023-06-19T13:46:46;6.30;;;4.57;;
2099;SDS011;1055;48.854;9.302;2023-06-19T13:49:12;6.90;;;5.40;;
2099;SDS011;1055;48.854;9.302;2023-06-19T13:51:39;6.70;;;5.47;;
2099;SDS011;1055;48.854;9.302;2023-06-19T13:54:04;6.73;;;5.17;;
2099;SDS011;1055;48.854;9.302;2023-06-19T13:56:30;8.13;;;5.87;;
2099;SDS011;1055;48.854;9.302;2023-06-19T13:58:57;7.97;;;5.30;;
2099;SDS011;1055;48.854;9.302;2023-06-19T14:01:23;7.03;;;5.20;;
2099;SDS011;1055;48.854;9.302;2023-06-19T14:03:50;7.67;;;5.20;;
2099;SDS011;1055;48.854;9.302;2023-06-19T14:06:17;6.73;;;5.60;;
2099;SDS011;1055;48.854;9.302;2023-06-19T14:08:44;7.07;;;5.20;;
2099;SDS011;1055;48.854;9.302;2023-06-19T14:11:10;8.53;;;5.30;;
2099;SDS011;1055;48.854;9.302;2023-06-19T14:13:38;8.50;;;5.00;;
2099;SDS011;1055;48.854;9.302;2023-06-19T14:16:05;8.07;;;5.37;;
2099;SDS011;1055;48.854;9.302;2023-06-19T14:18:30;6.90;;;5.10;;
2099;SDS011;1055;48.854;9.302;2023-06-19T14:20:56;6.70;;;5.20;;
2099;SDS011;1055;48.854;9.302;2023-06-19T14:23:22;10.80;;;5.40;;
2099;SDS011;1055;48.854;9.302;2023-06-19T14:25:48;7.43;;;5.33;;
2099;SDS011;1055;48.854;9.302;2023-06-19T14:28:14;7.37;;;4.47;;
2099;SDS011;1055;48.854;9.302;2023-06-19T14:30:40;14.20;;;5.50;;
2099;SDS011;1055;48.854;9.302;2023-06-19T14:33:05;7.03;;;5.30;;
2099;SDS011;1055;48.854;9.302;2023-06-19T14:35:35;7.00;;;4.60;;
2099;SDS011;1055;48.854;9.302;2023-06-19T14:38:00;8.17;;;5.47;;
2099;SDS011;1055;48.854;9.302;2023-06-19T14:40:26;8.67;;;5.50;;
2099;SDS011;1055;48.854;9.302;2023-06-19T14:42:52;7.73;;;5.97;;
2099;SDS011;1055;48.854;9.302;2023-06-19T14:45:17;7.10;;;5.40;;
2099;SDS011;1055;48.854;9.302;2023-06-19T14:47:43;7.10;;;4.90;;
2099;SDS011;1055;48.854;9.302;2023-06-19T14:50:08;7.63;;;5.50;;
2099;SDS011;1055;48.854;9.302;2023-06-19T14:52:34;6.87;;;5.20;;
2099;SDS011;1055;48.854;9.302;2023-06-19T14:55:00;7.50;;;5.40;;
2099;SDS011;1055;48.854;9.302;2023-06-19T14:57:25;6.80;;;4.93;;
2099;SDS011;1055;48.854;9.302;2023-06-19T14:59:51;7.07;;;5.43;;
2099;SDS011;1055;48.854;9.302;2023-06-19T15:02:17;6.80;;;5.00;;
2099;SDS011;1055;48.854;9.302;2023-06-19T15:04:42;6.60;;;5.00;;
2099;SDS011;1055;48.854;9.302;2023-06-19T15:07:08;8.17;;;5.33;;
2099;SDS011;1055;48.854;9.302;2023-06-19T15:09:34;8.00;;;5.27;;
2099;SDS011;1055;48.854;9.302;2023-06-19T15:11:59;7.37;;;5.43;;
2099;SDS011;1055;48.854;9.302;2023-06-19T15:14:25;7.03;;;5.50;;
2099;SDS011;1055;48.854;9.302;2023-06-19T15:16:51;6.70;;;5.30;;
2099;SDS011;1055;48.854;9.302;2023-06-19T15:19:17;7.80;;;5.30;;
2099;SDS011;1055;48.854;9.302;2023-06-19T15:21:42;8.00;;;5.40;;